Portada
METAR-TAF:

METAR-TAF

Aeropuertos :

Aeropuerto de León

León, España

latitud: 42-35N, longitud: 005-39W, altitud: 926 m

Observación

El informe se hizo hace 7 horas y 48 minutos, a las 20:00 UTC
Viento 1 kt con dirección variable
Temperatura 20°C
Humedad 64%
Presión 1020 hPa
Visibilidad 10 km o más
sin nubes por debajo de 1500 m y sin presencia de cumulonimbus.

METAR: LELN 192000Z VRB01KT CAVOK 20/13 Q1020

Hora: 05:48 (03:48 UTC)

Pronóstico

El informe se hizo hace 1 hora y 48 minutos, a las 02:00 UTC
Pronóstico válido del 20 a las 03 UTC al 20 a las 12 UTC
Viento 4 kt con dirección variable
Visibilidad 10 km o más
sin nubes por debajo de 1500 m y sin presencia de cumulonimbus.
Temporalmente
del 20 a las 03 UTC al 20 a las 08 UTC
Viento 7 kt del noreste

TAF: LELN 200200Z 2003/2012 VRB04KT CAVOK TEMPO 2003/2008 04007KT

Observaciones y pronósticos meteorológicos de más de 4000 aeropuertos (mensajes METAR y TAF).

Los puntos amarillos y rojos representan las estaciones disponibles.

Ponga el ratón en el punto deseado para ver el nombre de la estación.

Haga clic para ver las observaciones y los pronósticos meteorológicos.

Para cambiar el mapa : haga clic en los botones verdes con una cruz de color negro para hacer un zoom, en el botón verde con un guión para alejar o en las flechas verdes para mapas adyacentes.


METAR-TAF: